Flight Briefing for CPX236

Departure Arrival
Washington Dulles International Airport (KIAD)
Click to view FAA NOTAMS
March Air Reserve Base (KRIV)
Click to view FAA NOTAMS
Departure Time Arrival Time
N/A N/A
Aircraft Distance
B767-300BDSF 1970nm
Departure METAR Arrival METAR
KIAD 221052Z 31020G26KT 10SM SCT024 BKN030 OVC045 07/01 A2961 RMK AO2 PK WND 32026/1050 SLP028 T00670011 KRIV 221133Z AUTO 00000KT 10SM FEW019 SCT024 BKN045 08/08 A3013 RMK AO2 SLP203
Suggested Route
BUNZZ3 RAMAY Q72 HACKS J149 EMPTY J80 SAAGS J80 MCI J24 SLN J102 LAA J102 GUP J96 PKE J78 TRM ARKOE1


View recent IFR Routes data
Notes



Charts and Procedures

Charts for KIAD
No chart available
Charts for KRIV
No chart available

Windy.com Weather Map